Thunder radar more information blitzortung!


Rain radar  rain snow radar



Ingen spesiell oppmerksomhet nødvendig.    Det er ingen advarsler

Nearby METAR Reports

   
ENZV - Stavanger
Oppdatert: Dec 13 2018 6:50 pm
Klart  
Klart  
   Vind: ØSØ 6.2 m/s
Vind: ØSØ 6.2 m/s
Temperatur: 0°C
Wind Chill: -6°C
Duggpunkt: -6°C
Luftfuktighet: 64%
Barometer: 1030 hPa
Sikt: More then 10 km
Detaljer skyer: Klart ft
ENZV 131750Z 11012KT CAVOK M00/M06 Q1030 NOSIG
ENCN - Kristiansand
Oppdatert: Dec 13 2018 6:50 pm
For det meste Overskyet  
For det meste Overskyet  
   Vind: NØ 4.6 m/s
Vind: NØ 4.6 m/s
Temperatur: -1°C
Wind Chill: -6°C
Duggpunkt: -4°C
Luftfuktighet: 80%
Barometer: 1032 hPa
Skyer: Mostly Cloudy
Sikt: More then 10 km
Detaljer skyer: Noen skyer 2000 ft,
For det meste Overskyet 4300 ft
ENCN 131750Z 05009KT 9999 FEW020 BKN043 M01/M04 Q1032
ENBR - Bergen
Oppdatert: Dec 13 2018 6:50 pm
Noen skyer  
Noen skyer  
   Vind: varierende 1 m/s
Vind: varierende 1 m/s
Temperatur: -1°C
Duggpunkt: -7°C
Luftfuktighet: 64%
Barometer: 1030 hPa
Skyer: Few Clouds
Sikt: More then 10 km
Detaljer skyer: Noen skyer 2300 ft
ENBR 131750Z VRB02KT 9999 FEW023 M01/M07 Q1030 NOSIG RMK WIND 1200FT 15008KT
ENGM - Oslo
Oppdatert: Dec 13 2018 6:50 pm
Lett Snø, For det meste Overskyet  
Lett Snø, For det meste Overskyet  
   Vind: varierende 1 m/s
Vind: varierende 1 m/s
Temperatur: -8°C
Duggpunkt: -10°C
Luftfuktighet: 86%
Barometer: 1034 hPa
Skyer: Mostly Cloudy
Sikt: More then 10 km
Detaljer skyer: For det meste Overskyet 500 ft
ENGM 131750Z VRB02KT 9999 -SN BKN005 M08/M10 Q1034 TEMPO 3000 -SN BKN004
ENVA - Trondheim
Oppdatert: Dec 13 2018 6:50 pm
Klart  
Klart  
   Vind: Øst 4.1 m/s
Vind: Øst 4.1 m/s
Temperatur: -12°C
Wind Chill: -19°C
Duggpunkt: -14°C
Luftfuktighet: 85%
Barometer: 1032 hPa
Sikt: More then 10 km
Detaljer skyer: Klart ft
ENVA 131750Z 10008KT CAVOK M12/M14 Q1032 NOSIG RMK WIND 670FT 13003KT
ENTC - Tromsø
Oppdatert: Dec 13 2018 6:50 pm
For det meste Overskyet  
For det meste Overskyet  
   Vind: SV 12.3 m/s
Vind: SV 12.3 m/s
Temperatur: 5°C
Wind Chill: -1°C
Duggpunkt: 1°C
Luftfuktighet: 76%
Barometer: 1023 hPa
Skyer: Mostly Cloudy
Sikt: More then 10 km
Detaljer skyer: Noen skyer 2400 ft,
For det meste Overskyet 3300 ft
ENTC 131750Z 22024KT 9999 FEW024 BKN033 05/01 Q1023 NOSIG RMK WIND 2600FT /////KT

Script utviklet av  Saratoga-weather.org Tilpasset for tamplaten av  Weerstation Leuven

Du finner vår vær info også på:

European Weather Network

WeatherCloud

Weather Underground

AWEKAS

HAMweather, WeatherForYou, PWS Weather

Utrustning vi bruker:

vær-station
Davis VP2

vær-programmet
Weather Display

Davis VP2

Weather Display